Iliff, CO

4:22 AM MDT on July 10, 2014 (GMT -0600)
Sterling Municipal (KSTK) Elev 4039 ft | 40.62 °N, 103.26 °W | Change Station

Current weather conditions updated 7 minutes ago

Clear
Clear
61 °F
Feels Like 61 °F
N
0
Wind Variable Wind from North

Today is forecast to be Warmer than yesterday.

Today
High -- | Low -- °F
--% Chance of Precip.
Yesterday
High -- | Low -- °F
Precip. -- in
5:29 AM 8:24 PM
Waxing Gibbous, 94% visible
Pressure 29.95 in
Visibility 10.0 miles
Clouds Clear
Dew Point 59 °F
Humidity 94%
Rainfall 0.00 in
Snow Depth Not available.
UV 0 out of 12
Pollen 5.00 out of 12
Air Quality Not available.
Flu Activity Local Activity
METAR KSTK 101015Z AUTO 00000KT 10SM CLR 16/15 A2995 RMK AO2

More Conditions Fewer Conditions

Pressure 29.95 in
Visibility 10.0 miles
Clouds Clear
Dew Point 59 °F
Humidity 94%
Rainfall 0.00 in
Snow Depth Not available.
UV 0 out of 12
Pollen 5.00 out of 12
Air Quality Not available.
Flu Activity Local Activity
METAR KSTK 101015Z AUTO 00000KT 10SM CLR 16/15 A2995 RMK AO2

More Conditions Fewer Conditions

10-Day Weather Forecast

Almanac

Astronomy

Jul. 10, 2014 Rise Set
Actual Time 5:29 AM MDT 8:24 PM MDT
Civil Twilight 4:57 AM MDT 8:57 PM MDT
Nautical Twilight 4:15 AM MDT 9:39 PM MDT
Astronomical Twilight 3:27 AM MDT 10:26 PM MDT
Moon 6:39 PM MDT 3:43 AM MDT
Length of Visible Light 16h 00m
Length of Day
14h 55m
Tomorrow will be 1m 9s shorter.
Waxing Gibbous, 94% of the Moon is Illuminated
Today
Waxing Gibbous
Jul 12
Full
Jul 18
Last Quarter
Jul 26
New
Aug 3
First Quarter

Today's Extremes

State Highs State Lows

Community

WunderPhotos

Upload Photos

1,732,088 photos uploaded!

Nearby

Snow Depth

Station Depth Elevation
Copeland Lake 0 in 8600 ft
Wild Basin 0 in 9560 ft
University Camp 0 in 10300 ft
Lake Irene 3 in 10700 ft
Phantom Valley 0 in 9030 ft

Earthquake Activity

City Distance Mag. Time & Date
No recent earthquake activity has been reported nearby.
Minimum magnitude displayed is 2.5.

Coastal Water Temperatures

Place Temperature
No Stations Reporting

Nearby Weather Stations

There are no personal weather stations in this area.